Main page
METAR-TAF:

METAR-TAF

Airports :

Gwadar International Airport

Gwadar, Pakistan

latitude: 25-13-59N, longitude: 062-19-46E, elevation: 29 m

METAR: missing

Time: 08:38 (03:38 UTC)

Forecast

The report was made 5 hours and 38 minutes ago, at 22:00 UTC
Forecast valid from 23 at 00 UTC to 23 at 24 UTC
Wind 8 kt from the Southwest with gusts up to 18 kt
Visibility: 5000 m
Scattered clouds at a height of 3000 ft
haze
Temporary
from 23 at 00 UTC to 23 at 04 UTC
Wind 5 kt from the West
Visibility: 2000 m
Scattered clouds at a height of 2000 ft
smoke
From UTC
Wind 8 kt from the West
Visibility: 4000 m
Scattered clouds at a height of 2500 ft
haze

TAF: OPGD 222200Z 2300/2324 23008G18KT 5000 HZ SCT030 TEMPO 2300/2304 27005KT 2000 FU SCT020 FM 231500Z 26008KT 4000 HZ SCT025

Weather observations and forecasts of more than 4000 airports (METAR and TAF reports).

The available stations are represented by yellow and red dots on the map.

Hover mouse over dot to see the name of the station.

Then click to see weather observations and forecasts.

To change the map : click on the green buttons with a black cross to zoom in, on the green button with a dash to zoom out, or on the green arrows for adjacent maps.


METAR-TAF: